Terminal Aerodrome Forecast
Issued by NWS

Home | Current Version | Previous Version | Text Only | Print | Product List | Glossary On
Versions: 1 2 3 4 5 6 7 8 9 10 11 12 13 14 15 16 17
000
FTUS43 KBIS 011100
TAFDIK
TAF
KDIK 011130Z 0112/0212 15008KT P6SM SCT120
     FM011400 11010KT P6SM SCT070 BKN150
     FM012100 09009KT P6SM SCT070 SCT150
     FM020600 05005KT P6SM SCT070 SCT100=

USA.gov is the U.S. government's official web portal to all federal, state and local government web resources and services.